Time;durP1;ratioP1;P1;durP2;ratioP2;P2;SDS_P1;SDS_P2;PMS_P1;PMS_P2;Temp;Humidity;BMP_temperature;BMP_pressure;BME280_temperature;BME280_humidity;BME280_pressure;Samples;Min_cycle;Max_cycle;Signal;HPM_P1;HPM_P2
2021/11/19 00:01:39;;;;;;;18.13;9.60;;;6.00;99.90;;;;;;5005559;28;20075;-88
2021/11/19 00:04:05;;;;;;;14.63;9.23;;;5.90;99.90;;;;;;4989865;28;20018;-88
2021/11/19 00:06:31;;;;;;;17.20;9.05;;;5.90;99.90;;;;;;4999266;28;20095;-88
2021/11/19 00:08:57;;;;;;;14.57;8.60;;;5.90;99.90;;;;;;5009441;28;20473;-87
2021/11/19 00:11:27;;;;;;;16.13;9.10;;;5.90;99.90;;;;;;5000182;28;20091;-88
2021/11/19 00:13:53;;;;;;;16.42;9.35;;;5.90;99.90;;;;;;4988215;28;20030;-87
2021/11/19 00:16:21;;;;;;;20.33;9.88;;;5.90;99.90;;;;;;5005552;28;20030;-87
2021/11/19 00:18:46;;;;;;;18.90;10.25;;;5.90;99.90;;;;;;5008727;28;20136;-87
2021/11/19 00:21:13;;;;;;;16.52;9.32;;;5.90;99.90;;;;;;5009804;28;20472;-88
2021/11/19 00:23:43;;;;;;;15.57;8.75;;;5.90;99.90;;;;;;5004984;28;20440;-88
2021/11/19 00:26:09;;;;;;;13.88;8.73;;;5.90;99.90;;;;;;4989635;28;20022;-88
2021/11/19 00:28:34;;;;;;;17.73;9.45;;;5.90;99.90;;;;;;4987988;28;20051;-87
2021/11/19 00:31:00;;;;;;;17.48;9.02;;;5.90;99.90;;;;;;4998734;28;20030;-87
2021/11/19 00:33:26;;;;;;;16.17;9.20;;;5.90;99.90;;;;;;5010839;28;20025;-88
2021/11/19 00:35:52;;;;;;;18.77;9.50;;;5.90;99.90;;;;;;5007110;28;20128;-88
2021/11/19 00:38:20;;;;;;;16.38;9.73;;;5.90;99.90;;;;;;5001028;28;20163;-88
2021/11/19 00:40:58;;;;;;;20.48;9.60;;;5.90;99.90;;;;;;4997664;28;20053;-88
2021/11/19 00:43:24;;;;;;;20.52;9.63;;;5.90;99.90;;;;;;5006904;28;20029;-87
2021/11/19 00:45:51;;;;;;;15.25;8.90;;;5.90;99.90;;;;;;5016188;28;20024;-88
2021/11/19 00:48:18;;;;;;;16.27;9.23;;;5.90;99.90;;;;;;5028997;28;20097;-87
2021/11/19 00:50:58;;;;;;;14.90;8.80;;;5.90;99.90;;;;;;4990664;28;20139;-88
2021/11/19 00:53:24;;;;;;;18.92;9.25;;;5.80;99.90;;;;;;5004242;28;20026;-88
2021/11/19 00:55:50;;;;;;;21.95;9.68;;;5.90;99.90;;;;;;5001617;28;20022;-87
2021/11/19 00:58:17;;;;;;;18.85;9.55;;;5.90;99.90;;;;;;5006634;28;20066;-88
2021/11/19 01:00:48;;;;;;;19.55;9.80;;;5.90;99.90;;;;;;4989558;28;20033;-87
2021/11/19 01:03:14;;;;;;;19.25;9.10;;;5.90;99.90;;;;;;4988184;28;20022;-87
2021/11/19 01:05:39;;;;;;;15.20;8.20;;;5.90;99.90;;;;;;5007760;28;20109;-87
2021/11/19 01:08:05;;;;;;;19.35;9.63;;;5.90;99.90;;;;;;5009654;28;20067;-88
2021/11/19 01:10:33;;;;;;;15.60;8.50;;;5.90;99.90;;;;;;5011748;28;20018;-87
2021/11/19 01:12:59;;;;;;;16.35;8.55;;;5.90;99.90;;;;;;5011417;28;20049;-88
2021/11/19 01:15:41;;;;;;;15.30;8.45;;;5.90;99.90;;;;;;5029125;28;20504;-88
2021/11/19 01:18:29;;;;;;;21.08;9.25;;;5.90;99.90;;;;;;5026929;28;20017;-88
2021/11/19 01:20:54;;;;;;;17.00;8.40;;;5.90;99.90;;;;;;5027512;28;20102;-87
2021/11/19 01:23:22;;;;;;;15.65;8.65;;;5.90;99.90;;;;;;5027519;28;20022;-88
2021/11/19 01:25:51;;;;;;;15.25;8.95;;;5.90;99.90;;;;;;5024723;28;20056;-87
2021/11/19 01:28:18;;;;;;;18.77;8.27;;;5.90;99.90;;;;;;5027105;28;20028;-88
2021/11/19 01:30:53;;;;;;;16.98;8.15;;;5.90;99.90;;;;;;5027081;28;20157;-88
2021/11/19 01:33:19;;;;;;;14.10;8.70;;;5.90;99.90;;;;;;5020760;28;20230;-87
2021/11/19 01:35:45;;;;;;;20.55;9.95;;;5.90;99.90;;;;;;5003457;28;20117;-88
2021/11/19 01:38:11;;;;;;;19.98;8.70;;;5.90;99.90;;;;;;4995053;28;20022;-88
2021/11/19 01:40:43;;;;;;;17.05;8.32;;;5.90;99.90;;;;;;5003915;28;20067;-87
2021/11/19 01:43:12;;;;;;;18.17;9.43;;;5.90;99.90;;;;;;5008659;28;20030;-87
2021/11/19 01:45:44;;;;;;;15.77;8.68;;;5.90;99.90;;;;;;5010290;28;20276;-89
2021/11/19 01:48:13;;;;;;;15.13;8.32;;;5.90;99.90;;;;;;5016123;28;20026;-88
2021/11/19 01:50:56;;;;;;;19.23;8.50;;;5.80;99.90;;;;;;5026356;28;20037;-88
2021/11/19 01:53:29;;;;;;;18.70;9.00;;;5.90;99.90;;;;;;5025740;28;20018;-87
2021/11/19 01:56:20;;;;;;;18.10;8.70;;;5.90;99.90;;;;;;5026218;28;20029;-87
2021/11/19 01:58:53;;;;;;;20.35;8.52;;;5.90;99.90;;;;;;5028319;28;20026;-87
2021/11/19 02:01:20;;;;;;;;;;;5.90;99.90;;;;;;5029770;28;20037;-87
2021/11/19 02:03:53;;;;;;;21.15;8.63;;;5.90;99.90;;;;;;5028826;28;19905;-87
2021/11/19 02:06:23;;;;;;;17.85;8.68;;;5.90;99.90;;;;;;5039788;28;20030;-88
2021/11/19 02:08:49;;;;;;;15.15;7.82;;;5.90;99.90;;;;;;5012126;28;20018;-87
2021/11/19 02:11:43;;;;;;;19.25;8.68;;;5.90;99.90;;;;;;5035456;28;20150;-88
2021/11/19 02:14:13;;;;;;;20.38;8.15;;;5.90;99.90;;;;;;5008651;28;20492;-88
2021/11/19 02:16:43;;;;;;;20.73;8.85;;;6.00;99.90;;;;;;5025364;28;20029;-88
2021/11/19 02:19:16;;;;;;;14.95;8.98;;;5.90;99.90;;;;;;5026936;28;20029;-88
2021/11/19 02:21:59;;;;;;;20.20;9.13;;;6.00;99.90;;;;;;5024708;28;20053;-87
2021/11/19 02:24:36;;;;;;;;;;;6.00;99.90;;;;;;5010067;28;20087;-88
2021/11/19 02:27:16;;;;;;;16.67;8.15;;;6.00;99.90;;;;;;5009854;28;19906;-88
2021/11/19 02:29:47;;;;;;;19.00;8.75;;;6.00;99.90;;;;;;5010642;28;20068;-88
2021/11/19 02:32:18;;;;;;;19.13;9.43;;;6.00;99.90;;;;;;5012324;28;20528;-88
2021/11/19 02:34:43;;;;;;;21.73;8.60;;;6.00;99.90;;;;;;5008299;28;20064;-87
2021/11/19 02:37:24;;;;;;;21.67;8.57;;;6.00;99.90;;;;;;5003737;28;20433;-88
2021/11/19 02:40:07;;;;;;;18.08;8.88;;;6.00;99.90;;;;;;5024569;28;20413;-87
2021/11/19 02:42:38;;;;;;;23.15;8.48;;;6.00;99.90;;;;;;5020191;28;20034;-87
2021/11/19 02:45:10;;;;;;;18.58;8.18;;;6.00;99.90;;;;;;5029866;28;20415;-88
2021/11/19 02:47:36;;;;;;;22.60;8.82;;;6.10;99.90;;;;;;5082891;28;20026;-89
2021/11/19 02:50:04;;;;;;;19.38;9.25;;;6.10;99.90;;;;;;5010260;28;20053;-87
2021/11/19 02:52:35;;;;;;;25.17;9.80;;;6.00;99.90;;;;;;5013764;28;20021;-88
2021/11/19 02:55:04;;;;;;;19.30;8.32;;;6.10;99.90;;;;;;5093698;28;20188;-88
2021/11/19 02:57:30;;;;;;;24.58;9.32;;;6.10;99.90;;;;;;5067529;28;20066;-87
2021/11/19 02:59:57;;;;;;;18.05;7.95;;;6.10;99.90;;;;;;5011324;28;20126;-87
2021/11/19 03:02:27;;;;;;;21.38;8.48;;;6.10;99.90;;;;;;5016500;28;20117;-88
2021/11/19 03:04:57;;;;;;;22.08;9.23;;;6.10;99.90;;;;;;5028670;28;20504;-87
2021/11/19 03:07:23;;;;;;;18.98;8.23;;;6.10;99.90;;;;;;5022053;28;20062;-88
2021/11/19 03:09:58;;;;;;;18.25;8.25;;;6.10;99.90;;;;;;5010660;28;20362;-88
2021/11/19 03:12:27;;;;;;;22.65;8.30;;;6.20;99.90;;;;;;5015934;28;20068;-88
2021/11/19 03:14:57;;;;;;;18.55;8.45;;;6.20;99.90;;;;;;5009076;28;20385;-88
2021/11/19 03:17:25;;;;;;;20.67;9.00;;;6.20;99.90;;;;;;5028213;28;20036;-88
2021/11/19 03:19:51;;;;;;;17.90;8.43;;;6.10;99.90;;;;;;5029487;28;20423;-88
2021/11/19 03:22:20;;;;;;;23.08;8.30;;;6.10;99.90;;;;;;5013817;28;20021;-88
2021/11/19 03:24:46;;;;;;;22.55;8.60;;;6.20;99.90;;;;;;5030269;28;20047;-89
2021/11/19 03:27:13;;;;;;;16.73;9.00;;;6.20;99.90;;;;;;5011210;28;20086;-89
2021/11/19 03:29:41;;;;;;;18.23;8.90;;;6.10;99.90;;;;;;5009567;28;20036;-89
2021/11/19 03:32:09;;;;;;;20.08;8.35;;;6.20;99.90;;;;;;5026739;28;20040;-88
2021/11/19 03:34:35;;;;;;;19.75;8.63;;;6.10;99.90;;;;;;5028460;28;20426;-88
2021/11/19 03:37:01;;;;;;;18.50;8.68;;;6.10;99.90;;;;;;5006526;28;20034;-88
2021/11/19 03:39:29;;;;;;;23.02;8.95;;;6.10;99.90;;;;;;5026025;28;20082;-89
2021/11/19 03:41:56;;;;;;;18.90;8.85;;;6.10;99.90;;;;;;5008080;28;20025;-89
2021/11/19 03:44:28;;;;;;;22.75;8.75;;;6.10;99.90;;;;;;5008493;28;20402;-88
2021/11/19 03:47:04;;;;;;;19.07;8.67;;;6.10;99.90;;;;;;5010754;28;20022;-88
2021/11/19 03:49:33;;;;;;;17.55;8.82;;;6.10;99.90;;;;;;5016738;28;20273;-88
2021/11/19 03:52:12;;;;;;;19.27;8.55;;;6.10;99.90;;;;;;5009355;28;20143;-88
2021/11/19 03:54:39;;;;;;;18.77;9.23;;;6.10;99.90;;;;;;5042208;28;20037;-88
2021/11/19 03:57:07;;;;;;;20.27;9.32;;;6.10;99.90;;;;;;5009994;28;20034;-88
2021/11/19 03:59:33;;;;;;;16.75;8.63;;;6.10;99.90;;;;;;5029847;28;20025;-88
2021/11/19 04:01:59;;;;;;;19.48;9.05;;;6.10;99.90;;;;;;5028784;28;20033;-88
2021/11/19 04:04:29;;;;;;;18.30;9.13;;;6.10;99.90;;;;;;5014238;28;20099;-88
2021/11/19 04:06:57;;;;;;;18.25;9.75;;;6.10;99.90;;;;;;5015160;28;20018;-89
2021/11/19 04:09:23;;;;;;;21.95;9.68;;;6.10;99.90;;;;;;5013849;28;20162;-88
2021/11/19 04:11:49;;;;;;;21.38;9.38;;;6.10;99.90;;;;;;5014699;28;20083;-88
2021/11/19 04:14:15;;;;;;;19.98;9.38;;;6.10;99.90;;;;;;5105772;28;20042;-88
2021/11/19 04:16:44;;;;;;;23.90;9.60;;;6.10;99.90;;;;;;5049592;28;20112;-88
2021/11/19 04:19:13;;;;;;;20.13;9.27;;;6.10;99.90;;;;;;5028645;28;20477;-88
2021/11/19 04:21:40;;;;;;;18.17;9.95;;;6.10;99.90;;;;;;5017428;28;20038;-89
2021/11/19 04:24:07;;;;;;;22.00;10.05;;;6.10;99.90;;;;;;5029339;28;20022;-88
2021/11/19 04:26:34;;;;;;;19.05;9.55;;;6.10;99.90;;;;;;5029073;28;20025;-88
2021/11/19 04:29:00;;;;;;;25.25;10.60;;;6.10;99.90;;;;;;5016262;28;20026;-88
2021/11/19 04:31:29;;;;;;;23.83;10.80;;;6.00;99.90;;;;;;5018788;28;20030;-89
2021/11/19 04:33:56;;;;;;;27.30;11.57;;;6.00;99.90;;;;;;5019925;28;20030;-88
2021/11/19 04:36:22;;;;;;;25.20;11.52;;;6.00;99.90;;;;;;5007455;28;20029;-88
2021/11/19 04:38:48;;;;;;;24.58;11.38;;;6.00;99.90;;;;;;5009360;28;20048;-88
2021/11/19 04:41:15;;;;;;;26.65;11.00;;;6.00;99.90;;;;;;4995163;28;20030;-88
2021/11/19 04:43:41;;;;;;;26.75;12.65;;;6.00;99.90;;;;;;5058903;23;20106;-71
2021/11/19 04:46:08;;;;;;;26.30;11.75;;;6.00;99.90;;;;;;5008641;28;20113;-71
2021/11/19 04:48:35;;;;;;;23.27;11.05;;;6.00;99.90;;;;;;5007668;28;20029;-70
2021/11/19 04:51:05;;;;;;;27.80;12.15;;;5.90;99.90;;;;;;5008806;28;20026;-72
2021/11/19 04:53:31;;;;;;;25.30;12.68;;;5.90;99.90;;;;;;5008168;28;20065;-71
2021/11/19 04:55:58;;;;;;;30.08;13.13;;;5.80;99.90;;;;;;5007385;28;20030;-71
2021/11/19 04:58:24;;;;;;;28.92;12.50;;;5.90;99.90;;;;;;5012811;28;20029;-71
2021/11/19 05:00:54;;;;;;;25.58;12.20;;;5.80;99.90;;;;;;5028247;28;20026;-71
2021/11/19 05:03:20;;;;;;;27.98;12.77;;;5.80;99.90;;;;;;5027559;28;20087;-70
2021/11/19 05:05:47;;;;;;;29.95;12.73;;;5.80;99.90;;;;;;5028772;28;20026;-71
2021/11/19 05:08:13;;;;;;;27.48;12.48;;;5.80;99.90;;;;;;5026006;28;20085;-73
2021/11/19 05:10:42;;;;;;;26.50;13.82;;;5.80;99.90;;;;;;5008632;28;20108;-70
2021/11/19 05:13:09;;;;;;;27.55;13.05;;;5.80;99.90;;;;;;5055061;28;20475;-72
2021/11/19 05:15:36;;;;;;;25.05;12.30;;;5.80;99.90;;;;;;5009921;28;20119;-70
2021/11/19 05:18:02;;;;;;;26.80;12.65;;;5.80;99.90;;;;;;4992069;28;20339;-71
2021/11/19 05:20:27;;;;;;;31.17;12.95;;;5.80;99.90;;;;;;5008405;28;20037;-71
2021/11/19 05:22:54;;;;;;;28.25;12.75;;;5.80;99.90;;;;;;5007610;28;20078;-70
2021/11/19 05:25:24;;;;;;;27.70;14.10;;;5.80;99.90;;;;;;5024655;28;20045;-71
2021/11/19 05:27:49;;;;;;;28.35;13.27;;;5.80;99.90;;;;;;5024447;28;20104;-70
2021/11/19 05:30:16;;;;;;;28.30;12.88;;;5.70;99.90;;;;;;5023365;28;20164;-70
2021/11/19 05:32:42;;;;;;;28.23;13.10;;;5.80;99.90;;;;;;5027280;28;20025;-71
2021/11/19 05:35:09;;;;;;;27.45;13.20;;;5.70;99.90;;;;;;5031842;28;20032;-72
2021/11/19 05:37:36;;;;;;;28.73;13.07;;;5.70;99.90;;;;;;4990518;28;20553;-72
2021/11/19 05:40:04;;;;;;;25.08;11.80;;;5.70;99.90;;;;;;4999656;28;20482;-70
2021/11/19 05:42:30;;;;;;;23.25;12.25;;;5.70;99.90;;;;;;5006767;28;20026;-70
2021/11/19 05:44:55;;;;;;;26.67;13.02;;;5.70;99.90;;;;;;5014553;28;20111;-70
2021/11/19 05:47:21;;;;;;;25.17;12.70;;;5.60;99.90;;;;;;5010370;28;20370;-70
2021/11/19 05:49:46;;;;;;;25.42;11.82;;;5.70;99.90;;;;;;5009778;28;20034;-70
2021/11/19 05:52:12;;;;;;;25.00;12.32;;;5.70;99.90;;;;;;5010178;28;20052;-70
2021/11/19 05:54:39;;;;;;;31.30;13.48;;;5.70;99.90;;;;;;5025508;28;20033;-69
2021/11/19 05:57:08;;;;;;;27.13;12.07;;;5.70;99.90;;;;;;5026815;28;20036;-70
2021/11/19 05:59:35;;;;;;;30.08;13.45;;;5.70;99.90;;;;;;4996668;28;20035;-70
2021/11/19 06:02:06;;;;;;;31.08;13.10;;;5.70;99.90;;;;;;4995127;28;20028;-71
2021/11/19 06:04:32;;;;;;;29.42;12.85;;;5.70;99.90;;;;;;4996795;28;20474;-70
2021/11/19 06:06:57;;;;;;;45.90;22.33;;;5.70;99.90;;;;;;4996543;28;20113;-70
2021/11/19 06:09:31;;;;;;;28.08;13.95;;;5.70;99.90;;;;;;5007429;28;20022;-70
2021/11/19 06:12:16;;;;;;;28.10;12.73;;;5.70;99.90;;;;;;5010714;28;20022;-69
2021/11/19 06:14:52;;;;;;;23.30;11.80;;;5.70;99.90;;;;;;5002272;28;20522;-70
2021/11/19 06:17:46;;;;;;;25.38;10.85;;;5.70;99.90;;;;;;5013323;28;20083;-71
2021/11/19 06:20:16;;;;;;;24.67;10.52;;;5.70;99.90;;;;;;5006236;28;20041;-71
2021/11/19 06:22:45;;;;;;;19.58;9.18;;;5.70;99.90;;;;;;5022930;28;20018;-71
2021/11/19 06:25:15;;;;;;;22.02;11.10;;;5.60;99.90;;;;;;5006207;28;20046;-70
2021/11/19 06:27:41;;;;;;;28.73;15.52;;;5.60;99.90;;;;;;5016673;28;20018;-70
2021/11/19 06:30:12;;;;;;;28.98;16.05;;;5.50;99.90;;;;;;4987419;28;20035;-70
2021/11/19 06:32:37;;;;;;;34.15;18.48;;;5.50;99.90;;;;;;5003554;28;20063;-70
2021/11/19 06:35:04;;;;;;;27.20;13.23;;;5.50;99.90;;;;;;5051957;28;20109;-70
2021/11/19 06:37:30;;;;;;;24.83;14.15;;;5.50;99.90;;;;;;5003315;28;20026;-71
2021/11/19 06:39:56;;;;;;;24.33;13.15;;;5.50;99.90;;;;;;5097555;28;20051;-71
2021/11/19 06:42:22;;;;;;;23.42;12.48;;;5.50;99.90;;;;;;5023587;28;20049;-70
2021/11/19 06:44:48;;;;;;;22.70;11.27;;;5.50;99.90;;;;;;5005747;28;20034;-70
2021/11/19 06:47:15;;;;;;;24.88;11.05;;;5.50;99.90;;;;;;5006673;28;20107;-70
2021/11/19 06:49:41;;;;;;;27.70;11.50;;;5.50;99.90;;;;;;5006355;28;20038;-71
2021/11/19 06:52:08;;;;;;;23.20;13.00;;;5.50;99.90;;;;;;5005566;28;20030;-71
2021/11/19 06:54:35;;;;;;;23.05;11.38;;;5.50;99.90;;;;;;5003976;28;20026;-70
2021/11/19 06:57:02;;;;;;;26.92;12.35;;;5.50;99.90;;;;;;4999510;28;20105;-70
2021/11/19 06:59:27;;;;;;;24.27;12.40;;;5.60;99.90;;;;;;5005132;28;20037;-70
2021/11/19 07:01:53;;;;;;;25.05;12.38;;;5.60;99.90;;;;;;5004441;28;20462;-70
2021/11/19 07:04:19;;;;;;;24.00;14.02;;;5.60;99.90;;;;;;5003548;28;20026;-71
2021/11/19 07:06:46;;;;;;;21.45;12.10;;;5.60;99.90;;;;;;4992438;28;20030;-70
2021/11/19 07:09:14;;;;;;;23.83;12.77;;;5.60;99.90;;;;;;5006346;28;20041;-71
2021/11/19 07:11:40;;;;;;;26.38;12.35;;;5.60;99.90;;;;;;5013168;28;20036;-69
2021/11/19 07:14:07;;;;;;;23.05;11.57;;;5.60;99.90;;;;;;5006357;28;20474;-70
2021/11/19 07:16:33;;;;;;;26.50;12.30;;;5.50;99.90;;;;;;5009375;28;20485;-70
2021/11/19 07:18:59;;;;;;;22.92;11.57;;;5.50;99.90;;;;;;5009044;28;20477;-71
2021/11/19 07:21:27;;;;;;;31.38;13.35;;;5.50;99.90;;;;;;5010458;28;20040;-70
2021/11/19 07:23:54;;;;;;;26.00;12.15;;;5.60;99.90;;;;;;5008586;28;20037;-71
2021/11/19 07:26:23;;;;;;;29.23;12.52;;;5.50;99.90;;;;;;5008660;28;20026;-70
2021/11/19 07:28:49;;;;;;;28.80;12.18;;;5.50;99.90;;;;;;5008750;28;20022;-71
2021/11/19 07:31:16;;;;;;;24.80;12.68;;;5.50;99.90;;;;;;5009306;28;20026;-71
2021/11/19 07:33:42;;;;;;;32.35;12.73;;;5.60;99.90;;;;;;4991794;28;20026;-70
2021/11/19 07:36:08;;;;;;;76.53;43.63;;;5.60;99.90;;;;;;4997433;28;20026;-70
2021/11/19 07:38:35;;;;;;;32.25;16.15;;;5.60;99.90;;;;;;4990372;28;20022;-70
2021/11/19 07:41:01;;;;;;;31.35;15.70;;;5.70;99.90;;;;;;5007586;28;20153;-70
2021/11/19 07:43:30;;;;;;;35.70;14.60;;;5.70;99.90;;;;;;5008958;28;20026;-70
2021/11/19 07:45:57;;;;;;;27.35;13.48;;;5.70;99.90;;;;;;5006811;28;20457;-70
2021/11/19 07:48:29;;;;;;;27.00;13.85;;;5.70;99.90;;;;;;5016016;28;20693;-70
2021/11/19 07:50:57;;;;;;;27.48;13.50;;;5.70;99.90;;;;;;5009960;28;20049;-69
2021/11/19 07:53:23;;;;;;;29.05;14.82;;;5.70;99.90;;;;;;4990717;28;20056;-70
2021/11/19 07:55:51;;;;;;;30.83;14.85;;;5.70;99.90;;;;;;4991327;28;20026;-70
2021/11/19 07:58:17;;;;;;;30.67;15.07;;;5.70;99.90;;;;;;5008082;28;20022;-71
2021/11/19 08:00:46;;;;;;;28.90;14.07;;;5.70;99.90;;;;;;5009379;28;20026;-70
2021/11/19 08:03:13;;;;;;;27.77;15.15;;;5.70;99.90;;;;;;5008395;28;20603;-70
2021/11/19 08:05:40;;;;;;;28.00;14.93;;;5.70;99.90;;;;;;5010070;28;20022;-70
2021/11/19 08:08:06;;;;;;;28.98;14.57;;;5.70;99.90;;;;;;5009146;28;20038;-72
2021/11/19 08:10:32;;;;;;;30.73;13.10;;;5.70;99.90;;;;;;5008955;28;20018;-70
2021/11/19 08:12:58;;;;;;;30.98;13.60;;;5.70;99.90;;;;;;5008445;28;20328;-71
2021/11/19 08:15:27;;;;;;;28.02;13.35;;;5.70;99.90;;;;;;5008570;28;20037;-70
2021/11/19 08:17:53;;;;;;;27.95;12.98;;;5.70;99.90;;;;;;4990724;28;20135;-70
2021/11/19 08:20:23;;;;;;;31.75;16.45;;;5.70;99.90;;;;;;4991553;28;20054;-70
2021/11/19 08:22:49;;;;;;;28.67;13.35;;;5.70;99.90;;;;;;5009142;28;20036;-70
2021/11/19 08:25:15;;;;;;;26.27;13.43;;;5.70;99.90;;;;;;5013215;28;20026;-71
2021/11/19 08:27:48;;;;;;;29.38;14.75;;;5.70;99.90;;;;;;5007770;28;20026;-70
2021/11/19 08:30:23;;;;;;;25.35;13.20;;;5.70;99.90;;;;;;5004466;28;20038;-71
2021/11/19 08:32:49;;;;;;;28.40;14.18;;;5.60;99.90;;;;;;4989618;28;20018;-73
2021/11/19 08:35:14;;;;;;;25.98;12.02;;;5.60;99.90;;;;;;4995295;28;20160;-72
2021/11/19 08:37:41;;;;;;;31.55;12.88;;;5.60;99.90;;;;;;4992367;28;20026;-70
2021/11/19 08:40:09;;;;;;;27.35;13.07;;;5.70;99.90;;;;;;4998274;28;20040;-68
2021/11/19 08:42:35;;;;;;;22.45;10.93;;;5.70;99.90;;;;;;5007531;28;20456;-69
2021/11/19 08:45:01;;;;;;;25.88;12.23;;;5.70;99.90;;;;;;5008340;28;20029;-68
2021/11/19 08:47:27;;;;;;;22.13;10.88;;;5.70;99.90;;;;;;5007108;28;20026;-68
2021/11/19 08:49:52;;;;;;;35.65;17.77;;;5.70;99.90;;;;;;5008575;28;20026;-69
2021/11/19 08:52:21;;;;;;;21.95;11.90;;;5.70;99.90;;;;;;5006567;28;20149;-68
2021/11/19 08:54:49;;;;;;;35.13;18.25;;;5.70;99.90;;;;;;4996206;28;20018;-68
2021/11/19 08:57:17;;;;;;;48.95;23.98;;;5.70;99.90;;;;;;5006254;28;20051;-69
2021/11/19 08:59:45;;;;;;;34.20;17.00;;;5.70;99.90;;;;;;5006130;28;20067;-69
2021/11/19 09:02:14;;;;;;;35.08;15.05;;;5.70;99.90;;;;;;5007204;28;20026;-69
2021/11/19 09:04:39;;;;;;;30.25;15.40;;;5.70;99.90;;;;;;5007014;28;20030;-68
2021/11/19 09:07:05;;;;;;;63.35;31.17;;;5.70;99.90;;;;;;5008493;28;20195;-68
2021/11/19 09:09:31;;;;;;;31.48;14.50;;;5.70;99.90;;;;;;5007945;28;20030;-69
2021/11/19 09:11:58;;;;;;;28.35;14.68;;;5.70;99.90;;;;;;5008932;28;20047;-68
2021/11/19 09:14:24;;;;;;;34.45;15.68;;;5.70;99.90;;;;;;5006788;28;20030;-69
2021/11/19 09:17:12;;;;;;;29.33;15.30;;;5.70;99.90;;;;;;5008151;28;20534;-69
2021/11/19 09:19:54;;;;;;;30.08;13.48;;;5.70;99.90;;;;;;4999408;28;20038;-69
2021/11/19 09:22:26;;;;;;;23.27;11.90;;;5.70;99.90;;;;;;5002020;28;20022;-69
2021/11/19 09:24:52;;;;;;;24.45;12.90;;;5.70;99.90;;;;;;5006597;28;20030;-68
2021/11/19 09:27:19;;;;;;;27.85;13.02;;;5.70;99.90;;;;;;5008456;28;20026;-68
2021/11/19 09:29:58;;;;;;;25.33;12.52;;;5.70;99.90;;;;;;5008269;28;20110;-69
2021/11/19 09:32:24;;;;;;;27.90;12.68;;;5.70;99.90;;;;;;4993473;28;20022;-69
2021/11/19 09:34:59;;;;;;;29.08;12.48;;;5.70;99.90;;;;;;4992664;28;20034;-69
2021/11/19 09:37:26;;;;;;;25.65;12.38;;;5.80;99.90;;;;;;5026365;28;20046;-68
2021/11/19 09:39:52;;;;;;;23.67;11.68;;;5.80;99.90;;;;;;5048200;28;20108;-69
2021/11/19 09:42:37;;;;;;;28.80;12.82;;;5.80;99.90;;;;;;5036356;28;20109;-68
2021/11/19 09:45:22;;;;;;;27.70;11.65;;;5.80;99.90;;;;;;5025334;28;20479;-69
2021/11/19 09:48:09;;;;;;;28.83;13.95;;;5.80;99.90;;;;;;5006454;28;20083;-69
2021/11/19 09:50:58;;;;;;;24.88;11.93;;;5.80;99.90;;;;;;5007580;28;20105;-68
2021/11/19 09:53:45;;;;;;;26.08;12.85;;;5.90;99.90;;;;;;5003219;28;20121;-68
2021/11/19 09:56:33;;;;;;;28.75;12.57;;;5.90;99.90;;;;;;4998298;28;20034;-69
2021/11/19 09:59:21;;;;;;;26.77;12.57;;;5.90;99.90;;;;;;4984122;28;20073;-69
2021/11/19 10:02:05;;;;;;;29.77;14.25;;;5.90;99.90;;;;;;4993600;28;20095;-69
2021/11/19 10:04:40;;;;;;;32.80;14.98;;;5.90;99.90;;;;;;5003754;28;20037;-68
2021/11/19 10:07:29;;;;;;;32.65;14.35;;;6.00;99.90;;;;;;5004254;28;20026;-69
2021/11/19 10:10:03;;;;;;;27.95;14.18;;;6.00;99.90;;;;;;5003395;28;20037;-69
2021/11/19 10:12:38;;;;;;;33.05;15.40;;;6.00;99.90;;;;;;5000715;28;20105;-69
2021/11/19 10:15:37;;;;;;;29.73;14.90;;;6.00;99.90;;;;;;5002167;28;20045;-69
2021/11/19 10:18:07;;;;;;;28.70;12.25;;;6.00;99.90;;;;;;5003322;28;20026;-68
2021/11/19 10:20:45;;;;;;;29.75;12.98;;;6.00;99.90;;;;;;5005673;28;20517;-69
2021/11/19 10:23:41;;;;;;;40.38;18.00;;;6.00;99.90;;;;;;5003373;28;20034;-69
2021/11/19 10:26:32;;;;;;;26.50;12.38;;;6.00;99.90;;;;;;5002933;28;20058;-69
2021/11/19 10:29:22;;;;;;;27.85;12.23;;;6.10;99.90;;;;;;5003486;28;20030;-68
2021/11/19 10:31:50;;;;;;;26.40;11.98;;;6.10;99.90;;;;;;4993458;28;20027;-68
2021/11/19 10:34:27;;;;;;;38.20;17.88;;;6.10;99.90;;;;;;4983875;28;20056;-68
2021/11/19 10:37:12;;;;;;;29.73;15.55;;;6.10;99.90;;;;;;4994282;28;20037;-68
2021/11/19 10:40:03;;;;;;;26.10;12.85;;;6.10;99.90;;;;;;4989257;28;20107;-68
2021/11/19 10:43:03;;;;;;;28.00;12.90;;;6.20;99.90;;;;;;4992485;28;20030;-68
2021/11/19 10:45:57;;;;;;;28.95;15.30;;;6.20;99.90;;;;;;4999412;28;20047;-68
2021/11/19 10:48:29;;;;;;;31.80;14.18;;;6.10;99.90;;;;;;5023513;28;20075;-68
2021/11/19 10:51:24;;;;;;;;;;;6.20;99.90;;;;;;5007342;28;20057;-69
2021/11/19 10:54:28;;;;;;;27.52;12.45;;;6.20;99.90;;;;;;5004506;28;20008;-68
2021/11/19 10:57:15;;;;;;;28.75;12.10;;;6.20;99.90;;;;;;4996505;28;20054;-68
2021/11/19 11:00:01;;;;;;;24.85;12.68;;;6.20;99.90;;;;;;4990533;28;20542;-68
2021/11/19 11:02:49;;;;;;;27.13;12.77;;;6.20;99.90;;;;;;5006379;28;20026;-68
2021/11/19 11:05:24;;;;;;;28.02;12.85;;;6.20;99.90;;;;;;5004995;28;20029;-67
2021/11/19 11:08:04;;;;;;;25.58;13.48;;;6.20;99.90;;;;;;5004828;28;20024;-68
2021/11/19 11:10:34;;;;;;;24.42;12.48;;;6.20;99.90;;;;;;5005249;28;20037;-68
2021/11/19 11:13:00;;;;;;;23.88;12.40;;;6.20;99.90;;;;;;5005236;28;20385;-68
2021/11/19 11:15:32;;;;;;;22.88;11.90;;;6.20;99.90;;;;;;5005892;28;20155;-68
2021/11/19 11:18:00;;;;;;;28.67;14.67;;;6.20;99.90;;;;;;5002619;28;20026;-68
2021/11/19 11:20:46;;;;;;;27.85;13.52;;;6.20;99.90;;;;;;5001100;28;20281;-68
2021/11/19 11:23:30;;;;;;;31.30;13.50;;;6.20;99.90;;;;;;4995458;28;20049;-69
2021/11/19 11:26:20;;;;;;;33.08;13.43;;;6.20;99.90;;;;;;5005402;28;20026;-69
2021/11/19 11:28:50;;;;;;;26.13;13.10;;;6.20;99.90;;;;;;5006851;28;20038;-68
2021/11/19 11:31:37;;;;;;;25.70;12.60;;;6.30;99.90;;;;;;5002623;28;20026;-69
2021/11/19 11:34:14;;;;;;;22.77;12.25;;;6.20;99.90;;;;;;4998155;28;20054;-69
2021/11/19 11:36:45;;;;;;;20.23;11.32;;;6.20;99.90;;;;;;4994761;28;20030;-69
2021/11/19 11:39:17;;;;;;;27.13;12.13;;;6.20;99.90;;;;;;4990080;28;20049;-69
2021/11/19 11:41:49;;;;;;;27.88;12.18;;;6.20;99.90;;;;;;4996004;28;20907;-69
2021/11/19 11:44:17;;;;;;;26.85;13.27;;;6.30;99.90;;;;;;5003726;28;20075;-68
2021/11/19 11:47:05;;;;;;;20.48;11.23;;;6.30;99.90;;;;;;5006851;28;20427;-70
2021/11/19 11:49:30;;;;;;;23.75;11.65;;;6.30;99.90;;;;;;5005581;28;20521;-69
2021/11/19 11:52:21;;;;;;;24.35;11.60;;;6.30;99.90;;;;;;5005725;28;20030;-68
2021/11/19 11:55:11;;;;;;;22.27;10.95;;;6.30;99.90;;;;;;5003954;28;20358;-68
2021/11/19 11:57:47;;;;;;;23.38;11.75;;;6.40;99.90;;;;;;4985492;28;20026;-69
2021/11/19 12:00:37;;;;;;;22.65;11.38;;;6.40;99.90;;;;;;4987135;28;20084;-70
2021/11/19 12:03:08;;;;;;;18.60;10.95;;;6.40;99.90;;;;;;5000937;28;20422;-68
2021/11/19 12:05:58;;;;;;;24.52;11.43;;;6.40;99.90;;;;;;5005853;28;20030;-70
2021/11/19 12:08:41;;;;;;;19.95;11.05;;;6.50;99.90;;;;;;5005468;28;20786;-69
2021/11/19 12:11:35;;;;;;;20.85;10.77;;;6.50;99.90;;;;;;5005389;28;20026;-69
2021/11/19 12:14:12;;;;;;;21.83;11.18;;;6.50;99.90;;;;;;5003320;28;20134;-69
2021/11/19 12:17:13;;;;;;;19.42;10.63;;;6.60;99.90;;;;;;5005395;28;20560;-69
2021/11/19 12:19:47;;;;;;;24.02;11.15;;;6.60;99.90;;;;;;4997072;28;20035;-68
2021/11/19 12:22:30;;;;;;;22.50;11.10;;;6.60;99.90;;;;;;4992538;28;20397;-69
2021/11/19 12:25:30;;;;;;;24.10;11.23;;;6.60;99.90;;;;;;5015963;28;20368;-69
2021/11/19 12:28:06;;;;;;;22.95;11.23;;;6.60;99.90;;;;;;5002126;28;20063;-69
2021/11/19 12:30:44;;;;;;;24.00;11.73;;;6.60;99.90;;;;;;4986129;28;20034;-70
2021/11/19 12:33:29;;;;;;;19.25;11.18;;;6.50;99.90;;;;;;5000883;28;20026;-69
2021/11/19 12:36:24;;;;;;;22.60;11.45;;;6.60;99.90;;;;;;5006167;28;20704;-70
2021/11/19 12:38:54;;;;;;;22.25;11.05;;;6.50;99.90;;;;;;4976860;28;20042;-69
2021/11/19 12:41:35;;;;;;;24.90;11.38;;;6.60;99.90;;;;;;4987702;28;20403;-68
2021/11/19 12:44:42;;;;;;;22.40;13.02;;;6.50;99.90;;;;;;4989369;28;20152;-69
2021/11/19 12:47:28;;;;;;;24.05;12.15;;;6.50;99.90;;;;;;5002699;28;20070;-69
2021/11/19 12:50:16;;;;;;;26.00;12.35;;;6.60;99.90;;;;;;5005462;28;20022;-69
2021/11/19 12:52:54;;;;;;;27.20;13.48;;;6.60;99.90;;;;;;5013753;28;20120;-68
2021/11/19 12:55:28;;;;;;;27.95;12.98;;;6.60;99.90;;;;;;5015345;28;20037;-69
2021/11/19 12:58:02;;;;;;;21.20;11.80;;;6.60;99.90;;;;;;5004113;28;20072;-69
2021/11/19 13:00:37;;;;;;;26.42;12.32;;;6.60;99.90;;;;;;5005420;28;20041;-70
2021/11/19 13:03:40;;;;;;;23.05;12.13;;;6.60;99.90;;;;;;5006723;28;20030;-70
2021/11/19 13:06:17;;;;;;;26.92;12.15;;;6.60;99.90;;;;;;5078509;23;20032;-71